sensor_id;sensor_type;location;lat;lon;timestamp;pressure;altitude;pressure_sealevel;temperature;humidity
45113;BME280;30873;53.908;27.576;2023-02-19T00:01:36;999.8;;;5.1;60.6
45113;BME280;30873;53.908;27.576;2023-02-19T00:06:58;999.9;;;5.1;60.8
45113;BME280;30873;53.908;27.576;2023-02-19T00:12:00;999.9;;;5.1;61
45113;BME280;30873;53.908;27.576;2023-02-19T00:16:08;1000;;;5.1;61.3
45113;BME280;30873;53.908;27.576;2023-02-19T00:21:08;1000;;;5;61.7
45113;BME280;30873;53.908;27.576;2023-02-19T00:26:08;1000;;;5;61.9
45113;BME280;30873;53.908;27.576;2023-02-19T00:31:42;1000;;;5;62
45113;BME280;30873;53.908;27.576;2023-02-19T00:36:58;1000.1;;;5;62.1
45113;BME280;30873;53.908;27.576;2023-02-19T00:41:40;1000.1;;;5;62
45113;BME280;30873;53.908;27.576;2023-02-19T00:46:20;1000;;;4.9;62.3
45113;BME280;30873;53.908;27.576;2023-02-19T00:51:08;1000.1;;;5;62.1
45113;BME280;30873;53.908;27.576;2023-02-19T00:56:42;1000.1;;;5.1;61.9
45113;BME280;30873;53.908;27.576;2023-02-19T01:01:44;1000.2;;;5;61.8
45113;BME280;30873;53.908;27.576;2023-02-19T01:06:22;1000.2;;;5;62.1
45113;BME280;30873;53.908;27.576;2023-02-19T01:11:20;1000.2;;;4.9;62.3
45113;BME280;30873;53.908;27.576;2023-02-19T01:16:36;1000.2;;;4.8;62.4
45113;BME280;30873;53.908;27.576;2023-02-19T01:21:40;1000.2;;;4.9;62.4
45113;BME280;30873;53.908;27.576;2023-02-19T01:26:58;1000.2;;;4.9;62.1
45113;BME280;30873;53.908;27.576;2023-02-19T01:31:21;1000.2;;;4.9;62.1
45113;BME280;30873;53.908;27.576;2023-02-19T01:36:08;1000.2;;;4.8;62.4
45113;BME280;30873;53.908;27.576;2023-02-19T01:41:09;1000.3;;;4.9;62.4
45113;BME280;30873;53.908;27.576;2023-02-19T01:46:44;1000.3;;;5;62.3
45113;BME280;30873;53.908;27.576;2023-02-19T01:51:58;1000.3;;;5;62.3
45113;BME280;30873;53.908;27.576;2023-02-19T01:56:08;1000.3;;;5;62.2
45113;BME280;30873;53.908;27.576;2023-02-19T02:01:20;1000.3;;;5;62.2
45113;BME280;30873;53.908;27.576;2023-02-19T02:06:20;1000.3;;;5.1;62.2
45113;BME280;30873;53.908;27.576;2023-02-19T02:11:41;1000.3;;;4.9;62.3
45113;BME280;30873;53.908;27.576;2023-02-19T02:16:56;1000.3;;;4.8;62.8
45113;BME280;30873;53.908;27.576;2023-02-19T02:21:45;1000.4;;;4.7;63.3
45113;BME280;30873;53.908;27.576;2023-02-19T02:26:54;1000.4;;;4.7;63.3
45113;BME280;30873;53.908;27.576;2023-02-19T02:31:34;1000.4;;;4.7;63.2
45113;BME280;30873;53.908;27.576;2023-02-19T02:36:58;1000.5;;;4.9;63
45113;BME280;30873;53.908;27.576;2023-02-19T02:42:00;1000.5;;;4.9;63
45113;BME280;30873;53.908;27.576;2023-02-19T02:46:52;1000.5;;;4.9;62.9
45113;BME280;30873;53.908;27.576;2023-02-19T02:51:22;1000.6;;;5;62.7
45113;BME280;30873;53.908;27.576;2023-02-19T02:56:32;1000.6;;;5;62.4
45113;BME280;30873;53.908;27.576;2023-02-19T03:01:58;1000.5;;;5;62.2
45113;BME280;30873;53.908;27.576;2023-02-19T03:06:42;1000.6;;;5;62.2
45113;BME280;30873;53.908;27.576;2023-02-19T03:11:44;1000.6;;;5;62.4
45113;BME280;30873;53.908;27.576;2023-02-19T03:16:23;1000.7;;;4.9;62.7
45113;BME280;30873;53.908;27.576;2023-02-19T03:21:34;1000.7;;;4.9;62.9
45113;BME280;30873;53.908;27.576;2023-02-19T03:26:58;1000.8;;;4.8;63.4
45113;BME280;30873;53.908;27.576;2023-02-19T03:31:40;1000.7;;;4.7;63.9
45113;BME280;30873;53.908;27.576;2023-02-19T03:36:59;1000.8;;;4.7;64.2
45113;BME280;30873;53.908;27.576;2023-02-19T03:41:41;1000.8;;;4.7;64.2
45113;BME280;30873;53.908;27.576;2023-02-19T03:46:08;1000.9;;;4.6;64.3
45113;BME280;30873;53.908;27.576;2023-02-19T03:52:00;1000.9;;;4.5;64.4
45113;BME280;30873;53.908;27.576;2023-02-19T03:56:42;1001;;;4.5;64.5
45113;BME280;30873;53.908;27.576;2023-02-19T04:01:57;1001.1;;;4.5;64.6
45113;BME280;30873;53.908;27.576;2023-02-19T04:06:30;1001.1;;;4.4;64.6
45113;BME280;30873;53.908;27.576;2023-02-19T04:11:20;1001;;;4.4;64.7
45113;BME280;30873;53.908;27.576;2023-02-19T04:17:00;1001;;;4.3;64.9
45113;BME280;30873;53.908;27.576;2023-02-19T04:21:44;1001;;;4.3;65.1
45113;BME280;30873;53.908;27.576;2023-02-19T04:26:44;1001;;;4.2;65.1
45113;BME280;30873;53.908;27.576;2023-02-19T04:31:08;1001;;;4.1;65.4
45113;BME280;30873;53.908;27.576;2023-02-19T04:36:08;1001;;;4.1;65.5
45113;BME280;30873;53.908;27.576;2023-02-19T04:41:58;1001;;;4;65.8
45113;BME280;30873;53.908;27.576;2023-02-19T04:46:28;1001;;;4;65.8
45113;BME280;30873;53.908;27.576;2023-02-19T04:52:00;1001;;;4;66
45113;BME280;30873;53.908;27.576;2023-02-19T04:56:42;1001.1;;;3.9;66.2
45113;BME280;30873;53.908;27.576;2023-02-19T05:01:50;1001.1;;;4;66.2
45113;BME280;30873;53.908;27.576;2023-02-19T05:06:58;1001.2;;;4.1;66.2
45113;BME280;30873;53.908;27.576;2023-02-19T05:11:09;1001.3;;;4.1;66.1
45113;BME280;30873;53.908;27.576;2023-02-19T05:16:56;1001.3;;;4.3;65.8
45113;BME280;30873;53.908;27.576;2023-02-19T05:21:08;1001.3;;;4.3;65.7
45113;BME280;30873;53.908;27.576;2023-02-19T05:26:09;1001.2;;;4.3;65.5
45113;BME280;30873;53.908;27.576;2023-02-19T05:31:58;1001.2;;;4.3;65.5
45113;BME280;30873;53.908;27.576;2023-02-19T05:36:42;1001.2;;;4.3;65.2
45113;BME280;30873;53.908;27.576;2023-02-19T05:41:46;1001.1;;;4.3;65
45113;BME280;30873;53.908;27.576;2023-02-19T05:46:20;1001;;;4.3;64.9
45113;BME280;30873;53.908;27.576;2023-02-19T05:51:36;1001.1;;;4.4;64.7
45113;BME280;30873;53.908;27.576;2023-02-19T05:56:44;1001.2;;;4.4;64.5
45113;BME280;30873;53.908;27.576;2023-02-19T06:01:40;1001.2;;;4.5;64.3
45113;BME280;30873;53.908;27.576;2023-02-19T06:06:58;1001.2;;;4.5;64.1
45113;BME280;30873;53.908;27.576;2023-02-19T06:11:22;1001.3;;;4.5;63.8
45113;BME280;30873;53.908;27.576;2023-02-19T06:16:36;1001.3;;;4.5;63.8
45113;BME280;30873;53.908;27.576;2023-02-19T06:21:56;1001.3;;;4.6;63.7
45113;BME280;30873;53.908;27.576;2023-02-19T06:26:44;1001.3;;;4.6;63.6
45113;BME280;30873;53.908;27.576;2023-02-19T06:31:58;1001.3;;;4.6;63.6
45113;BME280;30873;53.908;27.576;2023-02-19T06:36:09;1001.4;;;4.7;63.5
45113;BME280;30873;53.908;27.576;2023-02-19T06:41:20;1001.3;;;4.8;63.2
45113;BME280;30873;53.908;27.576;2023-02-19T06:46:56;1001.3;;;5;62.9
45113;BME280;30873;53.908;27.576;2023-02-19T06:51:58;1001.3;;;4.9;62.7
45113;BME280;30873;53.908;27.576;2023-02-19T06:56:58;1001.3;;;5;62.8
45113;BME280;30873;53.908;27.576;2023-02-19T07:01:22;1001.3;;;5.3;62.2
45113;BME280;30873;53.908;27.576;2023-02-19T07:06:36;1001.3;;;5.3;61.6
45113;BME280;30873;53.908;27.576;2023-02-19T07:11:08;1001.3;;;5.3;61.5
45113;BME280;30873;53.908;27.576;2023-02-19T07:16:42;1001.3;;;5.5;61
45113;BME280;30873;53.908;27.576;2023-02-19T07:22:00;1001.3;;;5.5;60.8
45113;BME280;30873;53.908;27.576;2023-02-19T07:26:20;1001.2;;;5.6;61
45113;BME280;30873;53.908;27.576;2023-02-19T07:31:36;1001.2;;;5.5;60.8
45113;BME280;30873;53.908;27.576;2023-02-19T07:36:28;1001.2;;;5.5;60.4
45113;BME280;30873;53.908;27.576;2023-02-19T07:41:42;1001.2;;;5.4;59.9
45113;BME280;30873;53.908;27.576;2023-02-19T07:46:56;1001.2;;;5.5;59.6
45113;BME280;30873;53.908;27.576;2023-02-19T07:51:36;1001.2;;;5.5;58.9
45113;BME280;30873;53.908;27.576;2023-02-19T07:56:36;1001.2;;;5.7;58.7
45113;BME280;30873;53.908;27.576;2023-02-19T08:01:20;1001.3;;;5.8;58.1
45113;BME280;30873;53.908;27.576;2023-02-19T08:06:36;1001.3;;;6.2;56.8
45113;BME280;30873;53.908;27.576;2023-02-19T08:11:56;1001.3;;;6.3;55.7
45113;BME280;30873;53.908;27.576;2023-02-19T08:16:36;1001.4;;;6.3;55.4
45113;BME280;30873;53.908;27.576;2023-02-19T08:21:48;1001.4;;;6.4;54.7
45113;BME280;30873;53.908;27.576;2023-02-19T08:26:36;1001.5;;;6.6;53.3
45113;BME280;30873;53.908;27.576;2023-02-19T08:31:40;1001.4;;;6.7;52.7
45113;BME280;30873;53.908;27.576;2023-02-19T08:36:44;1001.4;;;7.2;51.7
45113;BME280;30873;53.908;27.576;2023-02-19T08:41:22;1001.3;;;7;51
45113;BME280;30873;53.908;27.576;2023-02-19T08:46:48;1001.4;;;7.6;49.3
45113;BME280;30873;53.908;27.576;2023-02-19T08:51:28;1001.4;;;7.4;49.3
45113;BME280;30873;53.908;27.576;2023-02-19T08:56:42;1001.5;;;7.5;49.5
45113;BME280;30873;53.908;27.576;2023-02-19T09:01:57;1001.5;;;7.3;48.7
45113;BME280;30873;53.908;27.576;2023-02-19T09:06:36;1001.5;;;7;47.7
45113;BME280;30873;53.908;27.576;2023-02-19T09:11:37;1001.6;;;6.8;48.1
45113;BME280;30873;53.908;27.576;2023-02-19T09:16:08;1001.6;;;6.8;47.8
45113;BME280;30873;53.908;27.576;2023-02-19T09:21:14;1001.6;;;6.7;47.9
45113;BME280;30873;53.908;27.576;2023-02-19T09:26:56;1001.5;;;7.2;47.7
45113;BME280;30873;53.908;27.576;2023-02-19T09:31:08;1001.5;;;8.7;45.3
45113;BME280;30873;53.908;27.576;2023-02-19T09:36:36;1001.5;;;9.4;44.3
45113;BME280;30873;53.908;27.576;2023-02-19T09:41:21;1001.5;;;10.6;41.7
45113;BME280;30873;53.908;27.576;2023-02-19T09:46:44;1001.5;;;10.8;40.3
45113;BME280;30873;53.908;27.576;2023-02-19T09:52:02;1001.6;;;10;41.1
45113;BME280;30873;53.908;27.576;2023-02-19T09:56:42;1001.7;;;9.9;38.7
45113;BME280;30873;53.908;27.576;2023-02-19T10:01:36;1001.7;;;10.6;37
45113;BME280;30873;53.908;27.576;2023-02-19T10:06:10;1001.7;;;11;36.3
45113;BME280;30873;53.908;27.576;2023-02-19T10:11:44;1001.5;;;11.9;35.5
45113;BME280;30873;53.908;27.576;2023-02-19T10:17:00;1001.6;;;12.5;34.6
45113;BME280;30873;53.908;27.576;2023-02-19T10:22:00;1001.5;;;13.3;33.5
45113;BME280;30873;53.908;27.576;2023-02-19T10:26:22;1001.6;;;12.9;33.8
45113;BME280;30873;53.908;27.576;2023-02-19T10:31:10;1001.6;;;13.4;33.5
45113;BME280;30873;53.908;27.576;2023-02-19T10:36:45;1001.5;;;13.7;32.2
45113;BME280;30873;53.908;27.576;2023-02-19T10:41:58;1001.5;;;12.2;33.6
45113;BME280;30873;53.908;27.576;2023-02-19T10:46:13;1001.5;;;12.6;33.2
45113;BME280;30873;53.908;27.576;2023-02-19T10:51:28;1001.5;;;13.3;31.9
45113;BME280;30873;53.908;27.576;2023-02-19T10:56:23;1001.3;;;14.2;31.1
45113;BME280;30873;53.908;27.576;2023-02-19T11:01:51;1001.3;;;14.9;30.1
45113;BME280;30873;53.908;27.576;2023-02-19T11:07:06;1001.3;;;15.8;29.6
45113;BME280;30873;53.908;27.576;2023-02-19T11:11:08;1001.4;;;15.7;29.4
45113;BME280;30873;53.908;27.576;2023-02-19T11:17:00;1001.4;;;14.9;29.8
45113;BME280;30873;53.908;27.576;2023-02-19T11:21:23;1001.6;;;13.9;30.8
45113;BME280;30873;53.908;27.576;2023-02-19T11:26:44;1001.5;;;13.1;31.8
45113;BME280;30873;53.908;27.576;2023-02-19T11:31:58;1001.6;;;11.7;33.9
45113;BME280;30873;53.908;27.576;2023-02-19T11:36:23;1001.6;;;9.6;36.4
45113;BME280;30873;53.908;27.576;2023-02-19T11:41:09;1001.6;;;8.1;38.8
45113;BME280;30873;53.908;27.576;2023-02-19T11:46:08;1001.6;;;7.5;40
45113;BME280;30873;53.908;27.576;2023-02-19T11:51:48;1001.6;;;7.1;41.1
45113;BME280;30873;53.908;27.576;2023-02-19T11:57:05;1001.5;;;7.3;40.7
45113;BME280;30873;53.908;27.576;2023-02-19T12:01:15;1001.5;;;7.8;40.1
45113;BME280;30873;53.908;27.576;2023-02-19T12:06:23;1001.5;;;7.7;39.7
45113;BME280;30873;53.908;27.576;2023-02-19T12:11:10;1001.5;;;7.1;40.8
45113;BME280;30873;53.908;27.576;2023-02-19T12:16:42;1001.5;;;7.7;40.4
45113;BME280;30873;53.908;27.576;2023-02-19T12:22:04;1001.6;;;7.9;40.1
45113;BME280;30873;53.908;27.576;2023-02-19T12:26:22;1001.6;;;7.3;41.4
45113;BME280;30873;53.908;27.576;2023-02-19T12:31:27;1001.6;;;7;41.6
45113;BME280;30873;53.908;27.576;2023-02-19T12:36:10;1001.7;;;6.6;40.4
45113;BME280;30873;53.908;27.576;2023-02-19T12:41:46;1001.6;;;6.5;40.2
45113;BME280;30873;53.908;27.576;2023-02-19T12:47:00;1001.7;;;6.9;39.3
45113;BME280;30873;53.908;27.576;2023-02-19T12:51:38;1001.7;;;6.8;39
45113;BME280;30873;53.908;27.576;2023-02-19T12:56:35;1001.6;;;6.6;39.5
45113;BME280;30873;53.908;27.576;2023-02-19T13:01:08;1001.5;;;6.7;39.8
45113;BME280;30873;53.908;27.576;2023-02-19T13:06:44;1001.6;;;7.6;37.9
45113;BME280;30873;53.908;27.576;2023-02-19T13:11:26;1001.6;;;10.5;33.7
45113;BME280;30873;53.908;27.576;2023-02-19T13:16:45;1001.6;;;13.3;29.9
45113;BME280;30873;53.908;27.576;2023-02-19T13:21:36;1001.7;;;14.1;27.4
45113;BME280;30873;53.908;27.576;2023-02-19T13:26:41;1001.9;;;10.7;29.6
45113;BME280;30873;53.908;27.576;2023-02-19T13:31:46;1001.8;;;8.4;32.7
45113;BME280;30873;53.908;27.576;2023-02-19T13:37:00;1002;;;7.5;34.8
45113;BME280;30873;53.908;27.576;2023-02-19T13:41:36;1002;;;6.9;37
45113;BME280;30873;53.908;27.576;2023-02-19T13:46:35;1002;;;6.6;37.8
45113;BME280;30873;53.908;27.576;2023-02-19T13:51:52;1001.9;;;6.4;38.2
45113;BME280;30873;53.908;27.576;2023-02-19T13:56:42;1001.9;;;6.2;39.2
45113;BME280;30873;53.908;27.576;2023-02-19T14:06:51;1002;;;6.4;40.2
45113;BME280;30873;53.908;27.576;2023-02-19T14:11:14;1001.9;;;6.6;40
45113;BME280;30873;53.908;27.576;2023-02-19T14:21:44;1001.9;;;5.7;41.7
45113;BME280;30873;53.908;27.576;2023-02-19T14:27:00;1001.9;;;5.9;41.4
45113;BME280;30873;53.908;27.576;2023-02-19T14:31:36;1001.9;;;5.8;41.2
45113;BME280;30873;53.908;27.576;2023-02-19T14:36:25;1002.1;;;5.6;41.2
45113;BME280;30873;53.908;27.576;2023-02-19T14:41:08;1002.1;;;5.6;41.1
45113;BME280;30873;53.908;27.576;2023-02-19T14:46:45;1002.2;;;5.9;40.4
45113;BME280;30873;53.908;27.576;2023-02-19T14:51:58;1002.4;;;6.1;42.8
45113;BME280;30873;53.908;27.576;2023-02-19T14:56:14;1002.6;;;5.6;46.8
45113;BME280;30873;53.908;27.576;2023-02-19T15:01:59;1002.7;;;4.9;50.1
45113;BME280;30873;53.908;27.576;2023-02-19T15:06:22;1002.7;;;4.5;51.2
45113;BME280;30873;53.908;27.576;2023-02-19T15:11:30;1002.7;;;4.3;50.9
45113;BME280;30873;53.908;27.576;2023-02-19T15:17:01;1002.6;;;4;50.6
45113;BME280;30873;53.908;27.576;2023-02-19T15:21:36;1002.6;;;3.9;50.4
45113;BME280;30873;53.908;27.576;2023-02-19T15:26:36;1002.7;;;3.8;49.7
45113;BME280;30873;53.908;27.576;2023-02-19T15:31:12;1002.7;;;3.8;49.6
45113;BME280;30873;53.908;27.576;2023-02-19T15:36:36;1002.7;;;3.7;49.7
45113;BME280;30873;53.908;27.576;2023-02-19T15:41:48;1002.8;;;3.6;49.7
45113;BME280;30873;53.908;27.576;2023-02-19T15:46:22;1002.8;;;3.6;49.5
45113;BME280;30873;53.908;27.576;2023-02-19T15:52:01;1002.8;;;3.5;49.2
45113;BME280;30873;53.908;27.576;2023-02-19T15:56:23;1002.9;;;3.4;49.3
45113;BME280;30873;53.908;27.576;2023-02-19T16:01:35;1002.9;;;3.4;49.5
45113;BME280;30873;53.908;27.576;2023-02-19T16:06:50;1002.9;;;3.3;49.6
45113;BME280;30873;53.908;27.576;2023-02-19T16:11:37;1002.9;;;3.3;49.8
45113;BME280;30873;53.908;27.576;2023-02-19T16:16:59;1002.9;;;3.3;50
45113;BME280;30873;53.908;27.576;2023-02-19T16:21:44;1003;;;3.3;50.3
45113;BME280;30873;53.908;27.576;2023-02-19T16:26:50;1003;;;3.3;50.5
45113;BME280;30873;53.908;27.576;2023-02-19T16:31:46;1003.1;;;3.3;50.7
45113;BME280;30873;53.908;27.576;2023-02-19T16:36:36;1003.1;;;3.4;50.7
45113;BME280;30873;53.908;27.576;2023-02-19T16:42:09;1003.1;;;3.4;50.7
45113;BME280;30873;53.908;27.576;2023-02-19T16:46:08;1003.1;;;3.4;50.8
45113;BME280;30873;53.908;27.576;2023-02-19T16:51:36;1003.2;;;3.4;50.8
45113;BME280;30873;53.908;27.576;2023-02-19T16:56:42;1003.2;;;3.4;50.9
45113;BME280;30873;53.908;27.576;2023-02-19T17:01:34;1003.1;;;3.5;50.8
45113;BME280;30873;53.908;27.576;2023-02-19T17:06:22;1003.2;;;3.5;50.9
45113;BME280;30873;53.908;27.576;2023-02-19T17:11:09;1003.2;;;3.5;51
45113;BME280;30873;53.908;27.576;2023-02-19T17:16:36;1003.3;;;3.5;50.9
45113;BME280;30873;53.908;27.576;2023-02-19T17:21:42;1003.2;;;3.6;50.7
45113;BME280;30873;53.908;27.576;2023-02-19T17:26:20;1003.2;;;3.7;50.6
45113;BME280;30873;53.908;27.576;2023-02-19T17:31:58;1003.3;;;3.7;50.6
45113;BME280;30873;53.908;27.576;2023-02-19T17:36:23;1003.3;;;3.6;50.6
45113;BME280;30873;53.908;27.576;2023-02-19T17:41:20;1003.4;;;3.6;50.4
45113;BME280;30873;53.908;27.576;2023-02-19T17:46:42;1003.4;;;3.7;50
45113;BME280;30873;53.908;27.576;2023-02-19T17:51:36;1003.4;;;3.7;49.7
45113;BME280;30873;53.908;27.576;2023-02-19T17:57:00;1003.4;;;3.9;49.5
45113;BME280;30873;53.908;27.576;2023-02-19T18:01:08;1003.5;;;3.9;49.2
45113;BME280;30873;53.908;27.576;2023-02-19T18:06:36;1003.5;;;4;49
45113;BME280;30873;53.908;27.576;2023-02-19T18:11:43;1003.5;;;4;48.7
45113;BME280;30873;53.908;27.576;2023-02-19T18:16:22;1003.4;;;4.1;48.6
45113;BME280;30873;53.908;27.576;2023-02-19T18:21:58;1003.4;;;4;48.7
45113;BME280;30873;53.908;27.576;2023-02-19T18:26:09;1003.4;;;4;48.7
45113;BME280;30873;53.908;27.576;2023-02-19T18:31:08;1003.4;;;3.9;48.8
45113;BME280;30873;53.908;27.576;2023-02-19T18:36:44;1003.4;;;3.8;49.1
45113;BME280;30873;53.908;27.576;2023-02-19T18:41:36;1003.4;;;3.7;49.2
45113;BME280;30873;53.908;27.576;2023-02-19T18:47:00;1003.5;;;3.7;49.2
45113;BME280;30873;53.908;27.576;2023-02-19T18:51:08;1003.5;;;3.6;49.3
45113;BME280;30873;53.908;27.576;2023-02-19T18:56:08;1003.4;;;3.6;49.6
45113;BME280;30873;53.908;27.576;2023-02-19T19:01:40;1003.5;;;3.5;49.9
45113;BME280;30873;53.908;27.576;2023-02-19T19:06:08;1003.6;;;3.4;50.2
45113;BME280;30873;53.908;27.576;2023-02-19T19:12:00;1003.6;;;3.4;50.3
45113;BME280;30873;53.908;27.576;2023-02-19T19:16:28;1003.7;;;3.3;50.5
45113;BME280;30873;53.908;27.576;2023-02-19T19:21:50;1003.7;;;3.3;50.6
45113;BME280;30873;53.908;27.576;2023-02-19T19:26:44;1003.8;;;3.3;50.6
45113;BME280;30873;53.908;27.576;2023-02-19T19:31:48;1003.8;;;3.2;50.7
45113;BME280;30873;53.908;27.576;2023-02-19T19:37:00;1003.8;;;3.2;50.8
45113;BME280;30873;53.908;27.576;2023-02-19T19:41:08;1003.9;;;3.2;50.7
45113;BME280;30873;53.908;27.576;2023-02-19T19:46:41;1003.9;;;3.3;50.7
45113;BME280;30873;53.908;27.576;2023-02-19T19:52:00;1003.9;;;3.3;50.9
45113;BME280;30873;53.908;27.576;2023-02-19T19:56:08;1003.9;;;3.3;51
45113;BME280;30873;53.908;27.576;2023-02-19T20:01:50;1003.9;;;3.3;51
45113;BME280;30873;53.908;27.576;2023-02-19T20:06:24;1003.9;;;3.3;51.1
45113;BME280;30873;53.908;27.576;2023-02-19T20:11:50;1004;;;3.4;51
45113;BME280;30873;53.908;27.576;2023-02-19T20:17:00;1004;;;3.4;51
45113;BME280;30873;53.908;27.576;2023-02-19T20:21:36;1004.1;;;3.4;51
45113;BME280;30873;53.908;27.576;2023-02-19T20:26:50;1004.1;;;3.4;50.9
45113;BME280;30873;53.908;27.576;2023-02-19T20:31:20;1004.1;;;3.4;50.8
45113;BME280;30873;53.908;27.576;2023-02-19T20:36:48;1004.2;;;3.4;50.6
45113;BME280;30873;53.908;27.576;2023-02-19T20:41:58;1004.3;;;3.4;50.7
45113;BME280;30873;53.908;27.576;2023-02-19T20:46:08;1004.3;;;3.4;50.9
45113;BME280;30873;53.908;27.576;2023-02-19T20:51:49;1004.3;;;3.4;51.1
45113;BME280;30873;53.908;27.576;2023-02-19T20:56:08;1004.3;;;3.4;51.5
45113;BME280;30873;53.908;27.576;2023-02-19T21:01:50;1004.4;;;3.4;51.6
45113;BME280;30873;53.908;27.576;2023-02-19T21:06:58;1004.5;;;3.3;51.6
45113;BME280;30873;53.908;27.576;2023-02-19T21:11:34;1004.4;;;3.3;51.7
45113;BME280;30873;53.908;27.576;2023-02-19T21:17:00;1004.5;;;3.3;51.8
45113;BME280;30873;53.908;27.576;2023-02-19T21:21:28;1004.5;;;3.3;52.1
45113;BME280;30873;53.908;27.576;2023-02-19T21:26:50;1004.6;;;3.3;52.3
45113;BME280;30873;53.908;27.576;2023-02-19T21:31:58;1004.6;;;3.3;52.3
45113;BME280;30873;53.908;27.576;2023-02-19T21:36:08;1004.6;;;3.3;52.4
45113;BME280;30873;53.908;27.576;2023-02-19T21:41:50;1004.7;;;3.3;52.4
45113;BME280;30873;53.908;27.576;2023-02-19T21:46:20;1004.7;;;3.2;52.1
45113;BME280;30873;53.908;27.576;2023-02-19T21:51:50;1004.8;;;3.3;52.1
45113;BME280;30873;53.908;27.576;2023-02-19T21:57:01;1004.8;;;3.3;52.2
45113;BME280;30873;53.908;27.576;2023-02-19T22:01:35;1004.9;;;3.3;52.2
45113;BME280;30873;53.908;27.576;2023-02-19T22:06:48;1005;;;3.3;51.9
45113;BME280;30873;53.908;27.576;2023-02-19T22:11:42;1005;;;3.3;52
45113;BME280;30873;53.908;27.576;2023-02-19T22:16:50;1005;;;3.3;52
45113;BME280;30873;53.908;27.576;2023-02-19T22:22:00;1005.1;;;3.3;51.8
45113;BME280;30873;53.908;27.576;2023-02-19T22:26:08;1005.1;;;3.2;51.9
45113;BME280;30873;53.908;27.576;2023-02-19T22:31:48;1005.1;;;3.2;51.9
45113;BME280;30873;53.908;27.576;2023-02-19T22:36:12;1005.1;;;3.2;51.9
45113;BME280;30873;53.908;27.576;2023-02-19T22:41:50;1005.1;;;3.2;51.8
45113;BME280;30873;53.908;27.576;2023-02-19T22:47:00;1005.1;;;3.1;51.7
45113;BME280;30873;53.908;27.576;2023-02-19T22:51:09;1005.1;;;3.1;51.5
45113;BME280;30873;53.908;27.576;2023-02-19T22:56:50;1005.1;;;3.1;51.6
45113;BME280;30873;53.908;27.576;2023-02-19T23:01:20;1005.1;;;3.1;51.7
45113;BME280;30873;53.908;27.576;2023-02-19T23:06:50;1005.1;;;3.1;51.8
45113;BME280;30873;53.908;27.576;2023-02-19T23:11:59;1005.1;;;3.1;51.9
45113;BME280;30873;53.908;27.576;2023-02-19T23:16:36;1005.2;;;3.1;51.8
45113;BME280;30873;53.908;27.576;2023-02-19T23:21:50;1005.3;;;3.1;51.7
45113;BME280;30873;53.908;27.576;2023-02-19T23:26:18;1005.2;;;3;51.7
45113;BME280;30873;53.908;27.576;2023-02-19T23:31:50;1005.3;;;3.1;51.7
45113;BME280;30873;53.908;27.576;2023-02-19T23:36:58;1005.3;;;3;51.5
45113;BME280;30873;53.908;27.576;2023-02-19T23:41:36;1005.2;;;3;51.7
45113;BME280;30873;53.908;27.576;2023-02-19T23:46:50;1005.3;;;3.1;51.5
45113;BME280;30873;53.908;27.576;2023-02-19T23:51:16;1005.3;;;3;51.4
45113;BME280;30873;53.908;27.576;2023-02-19T23:56:48;1005.3;;;3.1;51.3
